sensor_id;sensor_type;location;lat;lon;timestamp;P1;durP1;ratioP1;P2;durP2;ratioP2
22786;SDS011;63134;52.020;4.714;2023-04-01T00:01:01;81.57;;;24.30;;
22786;SDS011;63134;52.020;4.714;2023-04-01T00:03:48;83.00;;;22.00;;
22786;SDS011;63134;52.020;4.714;2023-04-01T00:06:34;83.47;;;24.33;;
22786;SDS011;63134;52.020;4.714;2023-04-01T00:09:19;100.60;;;27.30;;
22786;SDS011;63134;52.020;4.714;2023-04-01T00:12:05;100.28;;;25.40;;
22786;SDS011;63134;52.020;4.714;2023-04-01T00:14:54;103.78;;;24.08;;
22786;SDS011;63134;52.020;4.714;2023-04-01T00:17:40;119.65;;;26.25;;
22786;SDS011;63134;52.020;4.714;2023-04-01T00:20:29;131.90;;;27.58;;
22786;SDS011;63134;52.020;4.714;2023-04-01T00:23:14;118.82;;;28.38;;
22786;SDS011;63134;52.020;4.714;2023-04-01T00:26:02;108.13;;;25.02;;
22786;SDS011;63134;52.020;4.714;2023-04-01T00:28:49;126.38;;;23.50;;
22786;SDS011;63134;52.020;4.714;2023-04-01T00:31:34;130.05;;;27.58;;
22786;SDS011;63134;52.020;4.714;2023-04-01T00:34:20;108.93;;;25.55;;
22786;SDS011;63134;52.020;4.714;2023-04-01T00:37:06;131.73;;;29.27;;
22786;SDS011;63134;52.020;4.714;2023-04-01T00:39:52;121.70;;;26.45;;
22786;SDS011;63134;52.020;4.714;2023-04-01T00:42:38;124.35;;;25.63;;
22786;SDS011;63134;52.020;4.714;2023-04-01T00:45:31;95.28;;;23.58;;
22786;SDS011;63134;52.020;4.714;2023-04-01T00:48:23;77.17;;;20.83;;
22786;SDS011;63134;52.020;4.714;2023-04-01T00:51:15;111.82;;;24.85;;
22786;SDS011;63134;52.020;4.714;2023-04-01T00:54:03;93.75;;;21.88;;
22786;SDS011;63134;52.020;4.714;2023-04-01T00:57:00;112.47;;;25.70;;
22786;SDS011;63134;52.020;4.714;2023-04-01T00:59:49;107.45;;;28.38;;
22786;SDS011;63134;52.020;4.714;2023-04-01T01:02:38;96.13;;;26.58;;
22786;SDS011;63134;52.020;4.714;2023-04-01T01:05:38;113.07;;;28.20;;
22786;SDS011;63134;52.020;4.714;2023-04-01T01:08:46;115.97;;;27.50;;
22786;SDS011;63134;52.020;4.714;2023-04-01T01:12:05;115.97;;;24.55;;
22786;SDS011;63134;52.020;4.714;2023-04-01T01:27:48;118.30;;;24.98;;
22786;SDS011;63134;52.020;4.714;2023-04-01T01:30:51;95.25;;;24.95;;
22786;SDS011;63134;52.020;4.714;2023-04-01T01:37:03;83.35;;;22.58;;
22786;SDS011;63134;52.020;4.714;2023-04-01T01:39:58;98.18;;;23.25;;
22786;SDS011;63134;52.020;4.714;2023-04-01T01:42:50;71.32;;;20.80;;
22786;SDS011;63134;52.020;4.714;2023-04-01T01:45:40;102.85;;;24.85;;
22786;SDS011;63134;52.020;4.714;2023-04-01T01:48:35;88.15;;;21.60;;
22786;SDS011;63134;52.020;4.714;2023-04-01T01:51:22;90.95;;;20.50;;
22786;SDS011;63134;52.020;4.714;2023-04-01T01:54:12;61.85;;;15.20;;
22786;SDS011;63134;52.020;4.714;2023-04-01T01:57:04;68.28;;;17.00;;
22786;SDS011;63134;52.020;4.714;2023-04-01T02:00:02;51.78;;;15.77;;
22786;SDS011;63134;52.020;4.714;2023-04-01T02:03:00;72.78;;;18.33;;
22786;SDS011;63134;52.020;4.714;2023-04-01T02:05:49;83.43;;;20.42;;
22786;SDS011;63134;52.020;4.714;2023-04-01T02:08:39;85.95;;;20.35;;
22786;SDS011;63134;52.020;4.714;2023-04-01T02:11:38;83.55;;;19.75;;
22786;SDS011;63134;52.020;4.714;2023-04-01T02:14:39;78.13;;;22.38;;
22786;SDS011;63134;52.020;4.714;2023-04-01T02:17:30;105.82;;;31.35;;
22786;SDS011;63134;52.020;4.714;2023-04-01T02:20:19;98.90;;;28.27;;
22786;SDS011;63134;52.020;4.714;2023-04-01T02:23:07;89.35;;;23.92;;
22786;SDS011;63134;52.020;4.714;2023-04-01T02:25:57;114.50;;;31.00;;
22786;SDS011;63134;52.020;4.714;2023-04-01T02:28:42;140.82;;;31.85;;
22786;SDS011;63134;52.020;4.714;2023-04-01T02:31:30;112.93;;;31.23;;
22786;SDS011;63134;52.020;4.714;2023-04-01T02:34:17;107.38;;;31.52;;
22786;SDS011;63134;52.020;4.714;2023-04-01T02:37:04;105.22;;;29.17;;
22786;SDS011;63134;52.020;4.714;2023-04-01T02:39:50;101.68;;;28.02;;
22786;SDS011;63134;52.020;4.714;2023-04-01T02:42:35;103.22;;;29.48;;
22786;SDS011;63134;52.020;4.714;2023-04-01T02:45:21;103.82;;;31.05;;
22786;SDS011;63134;52.020;4.714;2023-04-01T02:48:07;125.43;;;33.28;;
22786;SDS011;63134;52.020;4.714;2023-04-01T02:50:53;117.15;;;33.15;;
22786;SDS011;63134;52.020;4.714;2023-04-01T02:53:38;102.95;;;31.67;;
22786;SDS011;63134;52.020;4.714;2023-04-01T02:56:24;115.90;;;32.10;;
22786;SDS011;63134;52.020;4.714;2023-04-01T02:59:14;96.70;;;28.08;;
22786;SDS011;63134;52.020;4.714;2023-04-01T03:01:59;107.65;;;30.63;;
22786;SDS011;63134;52.020;4.714;2023-04-01T03:04:45;112.63;;;31.23;;
22786;SDS011;63134;52.020;4.714;2023-04-01T03:07:30;103.40;;;28.33;;
22786;SDS011;63134;52.020;4.714;2023-04-01T03:10:16;112.63;;;33.30;;
22786;SDS011;63134;52.020;4.714;2023-04-01T03:13:01;127.00;;;34.35;;
22786;SDS011;63134;52.020;4.714;2023-04-01T03:15:47;141.18;;;36.15;;
22786;SDS011;63134;52.020;4.714;2023-04-01T03:18:33;112.80;;;33.45;;
22786;SDS011;63134;52.020;4.714;2023-04-01T03:21:23;138.55;;;37.08;;
22786;SDS011;63134;52.020;4.714;2023-04-01T03:24:09;154.23;;;40.38;;
22786;SDS011;63134;52.020;4.714;2023-04-01T03:26:55;122.65;;;34.72;;
22786;SDS011;63134;52.020;4.714;2023-04-01T03:29:40;155.35;;;38.35;;
22786;SDS011;63134;52.020;4.714;2023-04-01T03:32:26;128.35;;;35.67;;
22786;SDS011;63134;52.020;4.714;2023-04-01T03:35:13;142.95;;;35.92;;
22786;SDS011;63134;52.020;4.714;2023-04-01T03:37:58;130.80;;;34.35;;
22786;SDS011;63134;52.020;4.714;2023-04-01T03:40:52;112.20;;;29.55;;
22786;SDS011;63134;52.020;4.714;2023-04-01T03:43:37;113.68;;;29.85;;
22786;SDS011;63134;52.020;4.714;2023-04-01T03:46:24;118.38;;;29.27;;
22786;SDS011;63134;52.020;4.714;2023-04-01T03:49:09;122.60;;;29.65;;
22786;SDS011;63134;52.020;4.714;2023-04-01T03:51:56;120.53;;;28.88;;
22786;SDS011;63134;52.020;4.714;2023-04-01T03:54:41;135.05;;;31.08;;
22786;SDS011;63134;52.020;4.714;2023-04-01T03:57:27;120.85;;;29.20;;
22786;SDS011;63134;52.020;4.714;2023-04-01T04:00:21;108.93;;;28.90;;
22786;SDS011;63134;52.020;4.714;2023-04-01T04:03:11;113.72;;;28.38;;
22786;SDS011;63134;52.020;4.714;2023-04-01T04:05:57;108.70;;;28.00;;
22786;SDS011;63134;52.020;4.714;2023-04-01T04:08:43;108.60;;;28.85;;
22786;SDS011;63134;52.020;4.714;2023-04-01T04:11:31;127.90;;;31.70;;
22786;SDS011;63134;52.020;4.714;2023-04-01T04:14:20;118.82;;;29.60;;
22786;SDS011;63134;52.020;4.714;2023-04-01T04:17:06;107.88;;;30.35;;
22786;SDS011;63134;52.020;4.714;2023-04-01T04:19:53;113.05;;;28.90;;
22786;SDS011;63134;52.020;4.714;2023-04-01T04:22:39;131.45;;;31.88;;
22786;SDS011;63134;52.020;4.714;2023-04-01T04:25:26;121.53;;;30.90;;
22786;SDS011;63134;52.020;4.714;2023-04-01T04:28:13;122.03;;;30.75;;
22786;SDS011;63134;52.020;4.714;2023-04-01T04:31:01;121.60;;;32.58;;
22786;SDS011;63134;52.020;4.714;2023-04-01T04:33:52;104.30;;;29.52;;
22786;SDS011;63134;52.020;4.714;2023-04-01T04:36:38;130.18;;;31.27;;
22786;SDS011;63134;52.020;4.714;2023-04-01T04:39:23;129.48;;;31.83;;
22786;SDS011;63134;52.020;4.714;2023-04-01T04:42:10;101.07;;;28.05;;
22786;SDS011;63134;52.020;4.714;2023-04-01T04:44:57;121.57;;;30.65;;
22786;SDS011;63134;52.020;4.714;2023-04-01T04:47:42;104.88;;;28.30;;
22786;SDS011;63134;52.020;4.714;2023-04-01T04:50:29;110.70;;;29.55;;
22786;SDS011;63134;52.020;4.714;2023-04-01T04:53:17;115.53;;;29.13;;
22786;SDS011;63134;52.020;4.714;2023-04-01T04:56:04;115.05;;;31.27;;
22786;SDS011;63134;52.020;4.714;2023-04-01T04:58:59;108.30;;;32.08;;
22786;SDS011;63134;52.020;4.714;2023-04-01T05:01:57;125.55;;;34.63;;
22786;SDS011;63134;52.020;4.714;2023-04-01T05:04:43;123.95;;;35.15;;
22786;SDS011;63134;52.020;4.714;2023-04-01T05:07:30;143.20;;;38.60;;
22786;SDS011;63134;52.020;4.714;2023-04-01T05:10:15;126.57;;;36.95;;
22786;SDS011;63134;52.020;4.714;2023-04-01T05:13:02;125.55;;;35.78;;
22786;SDS011;63134;52.020;4.714;2023-04-01T05:15:49;130.05;;;38.30;;
22786;SDS011;63134;52.020;4.714;2023-04-01T05:18:35;133.95;;;36.35;;
22786;SDS011;63134;52.020;4.714;2023-04-01T05:21:20;121.85;;;33.45;;
22786;SDS011;63134;52.020;4.714;2023-04-01T05:24:11;131.35;;;34.13;;
22786;SDS011;63134;52.020;4.714;2023-04-01T05:26:57;111.15;;;31.38;;
22786;SDS011;63134;52.020;4.714;2023-04-01T05:29:45;101.97;;;29.85;;
22786;SDS011;63134;52.020;4.714;2023-04-01T05:32:52;110.63;;;29.17;;
22786;SDS011;63134;52.020;4.714;2023-04-01T05:35:37;85.10;;;24.15;;
22786;SDS011;63134;52.020;4.714;2023-04-01T05:38:23;88.72;;;24.45;;
22786;SDS011;63134;52.020;4.714;2023-04-01T05:41:09;65.68;;;22.42;;
22786;SDS011;63134;52.020;4.714;2023-04-01T05:43:58;78.97;;;25.75;;
22786;SDS011;63134;52.020;4.714;2023-04-01T05:46:56;93.18;;;28.05;;
22786;SDS011;63134;52.020;4.714;2023-04-01T05:49:44;81.00;;;27.67;;
22786;SDS011;63134;52.020;4.714;2023-04-01T05:52:32;99.45;;;30.35;;
22786;SDS011;63134;52.020;4.714;2023-04-01T05:55:18;83.38;;;27.45;;
22786;SDS011;63134;52.020;4.714;2023-04-01T05:58:08;91.85;;;27.90;;
22786;SDS011;63134;52.020;4.714;2023-04-01T06:01:02;81.25;;;27.58;;
22786;SDS011;63134;52.020;4.714;2023-04-01T06:03:57;90.93;;;27.40;;
22786;SDS011;63134;52.020;4.714;2023-04-01T06:06:43;75.43;;;26.48;;
22786;SDS011;63134;52.020;4.714;2023-04-01T06:09:30;75.40;;;25.90;;
22786;SDS011;63134;52.020;4.714;2023-04-01T06:12:31;72.40;;;22.80;;
22786;SDS011;63134;52.020;4.714;2023-04-01T06:15:43;67.93;;;23.33;;
22786;SDS011;63134;52.020;4.714;2023-04-01T06:28:43;77.55;;;26.70;;
22786;SDS011;63134;52.020;4.714;2023-04-01T06:31:46;83.53;;;27.95;;
22786;SDS011;63134;52.020;4.714;2023-04-01T06:35:04;83.32;;;30.23;;
22786;SDS011;63134;52.020;4.714;2023-04-01T06:38:20;80.15;;;30.63;;
22786;SDS011;63134;52.020;4.714;2023-04-01T06:41:33;76.07;;;31.67;;
22786;SDS011;63134;52.020;4.714;2023-04-01T06:48:27;87.28;;;36.15;;
22786;SDS011;63134;52.020;4.714;2023-04-01T06:51:39;98.00;;;34.75;;
22786;SDS011;63134;52.020;4.714;2023-04-01T06:55:26;95.38;;;34.45;;
22786;SDS011;63134;52.020;4.714;2023-04-01T06:58:34;89.22;;;34.60;;
22786;SDS011;63134;52.020;4.714;2023-04-01T07:01:35;92.82;;;32.63;;
22786;SDS011;63134;52.020;4.714;2023-04-01T07:04:31;94.32;;;34.95;;
22786;SDS011;63134;52.020;4.714;2023-04-01T07:07:33;108.60;;;31.25;;
22786;SDS011;63134;52.020;4.714;2023-04-01T07:10:33;93.63;;;31.83;;
22786;SDS011;63134;52.020;4.714;2023-04-01T07:13:41;84.03;;;28.52;;
22786;SDS011;63134;52.020;4.714;2023-04-01T07:16:39;69.93;;;25.75;;
22786;SDS011;63134;52.020;4.714;2023-04-01T07:19:33;69.05;;;28.27;;
22786;SDS011;63134;52.020;4.714;2023-04-01T07:22:34;77.97;;;29.85;;
22786;SDS011;63134;52.020;4.714;2023-04-01T07:25:36;64.93;;;28.17;;
22786;SDS011;63134;52.020;4.714;2023-04-01T07:28:43;68.93;;;28.30;;
22786;SDS011;63134;52.020;4.714;2023-04-01T07:32:05;69.97;;;30.25;;
22786;SDS011;63134;52.020;4.714;2023-04-01T07:35:17;51.10;;;25.15;;
22786;SDS011;63134;52.020;4.714;2023-04-01T07:41:43;55.75;;;25.05;;
22786;SDS011;63134;52.020;4.714;2023-04-01T07:48:16;49.38;;;23.77;;
22786;SDS011;63134;52.020;4.714;2023-04-01T07:51:21;51.88;;;20.95;;
22786;SDS011;63134;52.020;4.714;2023-04-01T07:54:33;40.58;;;20.50;;
22786;SDS011;63134;52.020;4.714;2023-04-01T07:57:22;45.83;;;20.15;;
22786;SDS011;63134;52.020;4.714;2023-04-01T08:00:42;41.22;;;18.77;;
22786;SDS011;63134;52.020;4.714;2023-04-01T08:03:47;46.20;;;21.13;;
22786;SDS011;63134;52.020;4.714;2023-04-01T08:06:39;45.88;;;19.20;;
22786;SDS011;63134;52.020;4.714;2023-04-01T08:16:51;42.42;;;17.98;;
22786;SDS011;63134;52.020;4.714;2023-04-01T08:23:05;44.75;;;17.98;;
22786;SDS011;63134;52.020;4.714;2023-04-01T08:29:04;32.53;;;14.35;;
22786;SDS011;63134;52.020;4.714;2023-04-01T08:32:06;42.10;;;17.35;;
22786;SDS011;63134;52.020;4.714;2023-04-01T08:35:20;40.00;;;16.42;;
22786;SDS011;63134;52.020;4.714;2023-04-01T08:38:46;42.75;;;17.25;;
22786;SDS011;63134;52.020;4.714;2023-04-01T09:01:46;30.88;;;16.95;;
22786;SDS011;63134;52.020;4.714;2023-04-01T09:11:22;33.58;;;13.95;;
22786;SDS011;63134;52.020;4.714;2023-04-01T09:18:22;24.20;;;13.25;;
22786;SDS011;63134;52.020;4.714;2023-04-01T09:27:04;22.40;;;11.48;;
22786;SDS011;63134;52.020;4.714;2023-04-01T09:33:42;25.23;;;11.77;;
22786;SDS011;63134;52.020;4.714;2023-04-01T09:37:17;29.90;;;13.82;;
22786;SDS011;63134;52.020;4.714;2023-04-01T09:43:50;42.20;;;14.90;;
22786;SDS011;63134;52.020;4.714;2023-04-01T09:50:14;28.55;;;13.13;;
22786;SDS011;63134;52.020;4.714;2023-04-01T09:56:41;17.30;;;8.10;;
22786;SDS011;63134;52.020;4.714;2023-04-01T10:06:21;13.25;;;6.32;;
22786;SDS011;63134;52.020;4.714;2023-04-01T10:09:45;11.45;;;6.43;;
22786;SDS011;63134;52.020;4.714;2023-04-01T10:32:17;17.25;;;9.82;;
22786;SDS011;63134;52.020;4.714;2023-04-01T10:38:19;20.88;;;10.68;;
22786;SDS011;63134;52.020;4.714;2023-04-01T10:55:59;25.05;;;12.63;;
22786;SDS011;63134;52.020;4.714;2023-04-01T11:10:06;17.70;;;10.20;;
22786;SDS011;63134;52.020;4.714;2023-04-01T11:33:07;10.60;;;6.15;;
22786;SDS011;63134;52.020;4.714;2023-04-01T11:42:34;17.20;;;9.95;;
22786;SDS011;63134;52.020;4.714;2023-04-01T11:45:55;19.95;;;10.10;;
22786;SDS011;63134;52.020;4.714;2023-04-01T11:51:45;15.00;;;7.78;;
22786;SDS011;63134;52.020;4.714;2023-04-01T12:00:50;11.65;;;7.93;;
22786;SDS011;63134;52.020;4.714;2023-04-01T12:06:59;13.18;;;7.85;;
22786;SDS011;63134;52.020;4.714;2023-04-01T12:16:25;13.45;;;8.43;;
22786;SDS011;63134;52.020;4.714;2023-04-01T12:22:36;17.02;;;9.82;;
22786;SDS011;63134;52.020;4.714;2023-04-01T12:29:08;16.05;;;10.27;;
22786;SDS011;63134;52.020;4.714;2023-04-01T12:35:27;14.95;;;9.60;;
22786;SDS011;63134;52.020;4.714;2023-04-01T12:38:25;15.50;;;10.15;;
22786;SDS011;63134;52.020;4.714;2023-04-01T12:52:12;16.85;;;10.40;;
22786;SDS011;63134;52.020;4.714;2023-04-01T13:00:51;21.13;;;11.60;;
22786;SDS011;63134;52.020;4.714;2023-04-01T13:03:52;19.83;;;10.73;;
22786;SDS011;63134;52.020;4.714;2023-04-01T13:07:09;22.13;;;11.23;;
22786;SDS011;63134;52.020;4.714;2023-04-01T13:10:42;24.23;;;11.88;;
22786;SDS011;63134;52.020;4.714;2023-04-01T13:13:47;21.38;;;11.80;;
22786;SDS011;63134;52.020;4.714;2023-04-01T13:17:15;30.60;;;13.02;;
22786;SDS011;63134;52.020;4.714;2023-04-01T13:20:06;25.33;;;10.48;;
22786;SDS011;63134;52.020;4.714;2023-04-01T13:26:13;27.27;;;11.70;;
22786;SDS011;63134;52.020;4.714;2023-04-01T13:32:16;22.30;;;11.68;;
22786;SDS011;63134;52.020;4.714;2023-04-01T13:44:37;30.42;;;12.68;;
22786;SDS011;63134;52.020;4.714;2023-04-01T13:50:59;20.52;;;9.23;;
22786;SDS011;63134;52.020;4.714;2023-04-01T14:07:00;17.50;;;8.05;;
22786;SDS011;63134;52.020;4.714;2023-04-01T14:10:07;20.52;;;9.30;;
22786;SDS011;63134;52.020;4.714;2023-04-01T14:16:07;24.17;;;8.05;;
22786;SDS011;63134;52.020;4.714;2023-04-01T14:23:13;34.85;;;9.85;;
22786;SDS011;63134;52.020;4.714;2023-04-01T14:26:03;24.45;;;9.57;;
22786;SDS011;63134;52.020;4.714;2023-04-01T14:32:34;28.48;;;9.80;;
22786;SDS011;63134;52.020;4.714;2023-04-01T14:47:27;26.67;;;8.77;;
22786;SDS011;63134;52.020;4.714;2023-04-01T14:50:46;19.17;;;7.88;;
22786;SDS011;63134;52.020;4.714;2023-04-01T14:53:36;20.70;;;8.18;;
22786;SDS011;63134;52.020;4.714;2023-04-01T14:56:43;20.33;;;9.23;;
22786;SDS011;63134;52.020;4.714;2023-04-01T14:59:34;25.00;;;10.38;;
22786;SDS011;63134;52.020;4.714;2023-04-01T15:08:34;10.73;;;6.82;;
22786;SDS011;63134;52.020;4.714;2023-04-01T15:18:09;9.60;;;7.28;;
22786;SDS011;63134;52.020;4.714;2023-04-01T15:24:26;13.85;;;9.27;;
22786;SDS011;63134;52.020;4.714;2023-04-01T15:30:57;13.10;;;9.65;;
22786;SDS011;63134;52.020;4.714;2023-04-01T15:37:09;14.23;;;10.68;;
22786;SDS011;63134;52.020;4.714;2023-04-01T15:52:40;17.50;;;11.32;;
22786;SDS011;63134;52.020;4.714;2023-04-01T16:05:20;16.70;;;12.02;;
22786;SDS011;63134;52.020;4.714;2023-04-01T16:11:45;10.40;;;8.77;;
22786;SDS011;63134;52.020;4.714;2023-04-01T16:18:07;12.68;;;9.05;;
22786;SDS011;63134;52.020;4.714;2023-04-01T16:21:12;11.48;;;9.70;;
22786;SDS011;63134;52.020;4.714;2023-04-01T16:24:40;14.13;;;9.98;;
22786;SDS011;63134;52.020;4.714;2023-04-01T16:33:55;14.73;;;10.23;;
22786;SDS011;63134;52.020;4.714;2023-04-01T16:37:14;12.35;;;9.68;;
22786;SDS011;63134;52.020;4.714;2023-04-01T16:43:27;12.30;;;9.93;;
22786;SDS011;63134;52.020;4.714;2023-04-01T16:49:29;11.00;;;9.88;;
22786;SDS011;63134;52.020;4.714;2023-04-01T16:52:35;13.60;;;9.85;;
22786;SDS011;63134;52.020;4.714;2023-04-01T16:55:22;12.65;;;10.80;;
22786;SDS011;63134;52.020;4.714;2023-04-01T16:58:20;11.73;;;9.73;;
22786;SDS011;63134;52.020;4.714;2023-04-01T17:01:19;12.50;;;9.65;;
22786;SDS011;63134;52.020;4.714;2023-04-01T17:04:57;10.43;;;8.63;;
22786;SDS011;63134;52.020;4.714;2023-04-01T17:07:48;9.43;;;8.48;;
22786;SDS011;63134;52.020;4.714;2023-04-01T17:10:50;9.38;;;8.48;;
22786;SDS011;63134;52.020;4.714;2023-04-01T17:13:46;10.18;;;8.38;;
22786;SDS011;63134;52.020;4.714;2023-04-01T17:19:46;9.43;;;8.32;;
22786;SDS011;63134;52.020;4.714;2023-04-01T17:22:44;7.82;;;7.03;;
22786;SDS011;63134;52.020;4.714;2023-04-01T17:29:41;7.05;;;6.15;;
22786;SDS011;63134;52.020;4.714;2023-04-01T17:32:40;6.30;;;5.70;;
22786;SDS011;63134;52.020;4.714;2023-04-01T17:43:10;4.72;;;4.32;;
22786;SDS011;63134;52.020;4.714;2023-04-01T17:55:40;6.07;;;5.47;;
22786;SDS011;63134;52.020;4.714;2023-04-01T18:01:34;7.85;;;6.05;;
22786;SDS011;63134;52.020;4.714;2023-04-01T18:11:20;8.18;;;5.40;;
22786;SDS011;63134;52.020;4.714;2023-04-01T18:18:26;7.32;;;6.63;;
22786;SDS011;63134;52.020;4.714;2023-04-01T18:24:18;10.55;;;6.93;;
22786;SDS011;63134;52.020;4.714;2023-04-01T18:30:16;6.35;;;5.72;;
22786;SDS011;63134;52.020;4.714;2023-04-01T18:33:16;5.82;;;5.32;;
22786;SDS011;63134;52.020;4.714;2023-04-01T18:36:15;5.97;;;4.88;;
22786;SDS011;63134;52.020;4.714;2023-04-01T18:39:19;5.78;;;5.05;;
22786;SDS011;63134;52.020;4.714;2023-04-01T18:42:16;5.47;;;5.07;;
22786;SDS011;63134;52.020;4.714;2023-04-01T18:45:27;7.25;;;5.53;;
22786;SDS011;63134;52.020;4.714;2023-04-01T18:51:46;6.78;;;6.18;;
22786;SDS011;63134;52.020;4.714;2023-04-01T18:54:43;8.13;;;6.32;;
22786;SDS011;63134;52.020;4.714;2023-04-01T19:01:25;6.90;;;6.30;;
22786;SDS011;63134;52.020;4.714;2023-04-01T19:13:34;8.50;;;7.70;;
22786;SDS011;63134;52.020;4.714;2023-04-01T19:19:42;7.30;;;6.60;;
22786;SDS011;63134;52.020;4.714;2023-04-01T19:22:55;7.80;;;6.78;;
22786;SDS011;63134;52.020;4.714;2023-04-01T19:26:02;6.63;;;6.03;;
22786;SDS011;63134;52.020;4.714;2023-04-01T19:50:52;8.05;;;7.25;;
22786;SDS011;63134;52.020;4.714;2023-04-01T19:57:19;7.38;;;6.68;;
22786;SDS011;63134;52.020;4.714;2023-04-01T20:00:47;7.70;;;6.90;;
22786;SDS011;63134;52.020;4.714;2023-04-01T20:03:47;7.85;;;7.00;;
22786;SDS011;63134;52.020;4.714;2023-04-01T20:06:49;8.35;;;7.55;;
22786;SDS011;63134;52.020;4.714;2023-04-01T20:09:47;8.48;;;7.43;;
22786;SDS011;63134;52.020;4.714;2023-04-01T20:12:46;9.45;;;7.70;;
22786;SDS011;63134;52.020;4.714;2023-04-01T20:16:04;9.32;;;7.43;;
22786;SDS011;63134;52.020;4.714;2023-04-01T20:18:54;10.75;;;7.70;;
22786;SDS011;63134;52.020;4.714;2023-04-01T20:21:43;9.85;;;7.97;;
22786;SDS011;63134;52.020;4.714;2023-04-01T20:24:41;8.48;;;7.35;;
22786;SDS011;63134;52.020;4.714;2023-04-01T20:27:36;9.45;;;7.57;;
22786;SDS011;63134;52.020;4.714;2023-04-01T20:30:37;10.30;;;6.93;;
22786;SDS011;63134;52.020;4.714;2023-04-01T20:39:34;7.85;;;6.63;;
22786;SDS011;63134;52.020;4.714;2023-04-01T20:46:01;10.13;;;8.20;;
22786;SDS011;63134;52.020;4.714;2023-04-01T20:52:35;11.68;;;7.60;;
22786;SDS011;63134;52.020;4.714;2023-04-01T21:01:47;9.45;;;8.02;;
22786;SDS011;63134;52.020;4.714;2023-04-01T21:04:55;9.88;;;8.35;;
22786;SDS011;63134;52.020;4.714;2023-04-01T21:14:29;16.90;;;8.88;;
22786;SDS011;63134;52.020;4.714;2023-04-01T21:17:58;12.20;;;8.80;;
22786;SDS011;63134;52.020;4.714;2023-04-01T21:33:37;12.38;;;7.63;;
22786;SDS011;63134;52.020;4.714;2023-04-01T21:39:46;12.35;;;7.88;;
22786;SDS011;63134;52.020;4.714;2023-04-01T21:49:46;8.93;;;7.63;;
22786;SDS011;63134;52.020;4.714;2023-04-01T21:52:10;8.98;;;7.65;;
22786;SDS011;63134;52.020;4.714;2023-04-01T21:58:43;8.82;;;7.30;;
22786;SDS011;63134;52.020;4.714;2023-04-01T22:05:03;11.57;;;8.77;;
22786;SDS011;63134;52.020;4.714;2023-04-01T22:08:30;9.50;;;8.20;;
22786;SDS011;63134;52.020;4.714;2023-04-01T22:18:30;8.02;;;7.22;;
22786;SDS011;63134;52.020;4.714;2023-04-01T22:21:06;10.43;;;8.38;;
22786;SDS011;63134;52.020;4.714;2023-04-01T22:24:18;9.00;;;8.07;;
22786;SDS011;63134;52.020;4.714;2023-04-01T22:33:05;10.15;;;8.32;;
22786;SDS011;63134;52.020;4.714;2023-04-01T22:39:12;10.35;;;9.13;;
22786;SDS011;63134;52.020;4.714;2023-04-01T22:51:54;14.25;;;8.95;;
22786;SDS011;63134;52.020;4.714;2023-04-01T22:55:05;10.88;;;8.77;;
22786;SDS011;63134;52.020;4.714;2023-04-01T22:58:11;11.35;;;9.27;;
22786;SDS011;63134;52.020;4.714;2023-04-01T23:01:01;11.43;;;8.85;;
22786;SDS011;63134;52.020;4.714;2023-04-01T23:03:52;12.40;;;9.32;;
22786;SDS011;63134;52.020;4.714;2023-04-01T23:06:41;11.77;;;9.32;;
22786;SDS011;63134;52.020;4.714;2023-04-01T23:09:32;14.43;;;9.65;;
22786;SDS011;63134;52.020;4.714;2023-04-01T23:12:19;11.60;;;9.45;;
22786;SDS011;63134;52.020;4.714;2023-04-01T23:15:10;11.27;;;9.02;;
22786;SDS011;63134;52.020;4.714;2023-04-01T23:18:04;13.77;;;9.68;;
22786;SDS011;63134;52.020;4.714;2023-04-01T23:21:09;16.20;;;10.43;;
22786;SDS011;63134;52.020;4.714;2023-04-01T23:30:45;16.35;;;10.20;;
22786;SDS011;63134;52.020;4.714;2023-04-01T23:33:28;16.67;;;9.48;;
22786;SDS011;63134;52.020;4.714;2023-04-01T23:36:16;12.57;;;9.57;;
22786;SDS011;63134;52.020;4.714;2023-04-01T23:39:06;14.15;;;10.05;;
22786;SDS011;63134;52.020;4.714;2023-04-01T23:45:12;14.35;;;9.70;;
22786;SDS011;63134;52.020;4.714;2023-04-01T23:48:01;11.77;;;9.90;;
22786;SDS011;63134;52.020;4.714;2023-04-01T23:50:47;16.45;;;11.00;;
22786;SDS011;63134;52.020;4.714;2023-04-01T23:53:33;17.50;;;9.43;;
22786;SDS011;63134;52.020;4.714;2023-04-01T23:56:19;15.68;;;10.35;;
22786;SDS011;63134;52.020;4.714;2023-04-01T23:59:09;12.98;;;10.75;;
